createdAt,value
2024-02-13T00:01:11.453Z,11.27
2024-02-13T00:05:14.704Z,11.05
2024-02-13T00:09:25.624Z,11.00
2024-02-13T00:13:32.495Z,11.02
2024-02-13T00:17:46.268Z,10.73
2024-02-13T00:21:52.002Z,11.15
2024-02-13T00:25:56.983Z,11.32
2024-02-13T00:30:00.200Z,10.90
2024-02-13T00:34:03.112Z,11.20
2024-02-13T00:38:07.350Z,10.82
2024-02-13T00:42:11.485Z,11.23
2024-02-13T00:46:14.515Z,9.20
2024-02-13T00:50:17.676Z,9.80
2024-02-13T00:54:20.547Z,8.95
2024-02-13T00:58:24.688Z,10.05
2024-02-13T01:02:28.578Z,9.82
2024-02-13T01:06:31.392Z,11.25
2024-02-13T01:10:34.196Z,11.88
2024-02-13T01:14:40.047Z,12.25
2024-02-13T01:18:43.323Z,11.02
2024-02-13T01:22:46.173Z,12.85
2024-02-13T01:26:49.235Z,12.40
2024-02-13T01:30:53.524Z,13.40
2024-02-13T01:34:56.300Z,15.15
2024-02-13T01:39:01.158Z,14.60
2024-02-13T01:43:04.205Z,14.52
2024-02-13T01:47:09.123Z,14.85
2024-02-13T01:51:16.570Z,13.77
2024-02-13T01:55:22.165Z,14.88
2024-02-13T01:59:26.805Z,14.02
2024-02-13T02:03:34.330Z,15.10
2024-02-13T02:07:38.794Z,13.98
2024-02-13T02:11:41.694Z,15.13
2024-02-13T02:15:44.756Z,13.05
2024-02-13T02:19:52.469Z,14.05
2024-02-13T02:23:55.410Z,12.98
2024-02-13T02:27:59.566Z,14.93
2024-02-13T02:32:02.803Z,13.73
2024-02-13T02:40:50.972Z,14.15
2024-02-13T02:44:55.314Z,14.95
2024-02-13T02:48:59.571Z,15.75
2024-02-13T02:53:02.563Z,15.52
2024-02-13T02:57:05.735Z,14.98
2024-02-13T03:01:09.919Z,15.32
2024-02-13T03:05:12.842Z,15.38
2024-02-13T03:09:15.795Z,15.18
2024-02-13T03:13:18.683Z,15.27
2024-02-13T03:38:05.372Z,14.05
2024-02-13T03:42:08.988Z,13.65
2024-02-13T03:46:13.040Z,13.27
2024-02-13T03:50:18.147Z,11.90
2024-02-13T03:54:21.633Z,11.23
2024-02-13T03:58:24.431Z,10.98
2024-02-13T04:02:28.386Z,9.85
2024-02-13T04:06:34.355Z,9.43
2024-02-13T04:10:37.585Z,9.40
2024-02-13T04:14:40.456Z,8.77
2024-02-13T04:18:43.360Z,8.07
2024-02-13T04:22:47.828Z,8.40
2024-02-13T04:26:51.607Z,8.35
2024-02-13T04:30:55.052Z,9.75
2024-02-13T04:34:58.002Z,8.95
2024-02-13T04:39:02.181Z,9.52
2024-02-13T04:43:07.389Z,9.20
2024-02-13T04:47:10.198Z,9.27
2024-02-13T04:51:13.314Z,8.75
2024-02-13T04:55:17.703Z,8.80
2024-02-13T04:59:22.521Z,7.97
2024-02-13T05:03:40.549Z,8.63
2024-02-13T05:07:45.881Z,7.53
2024-02-13T05:11:50.034Z,7.78
2024-02-13T05:15:53.041Z,7.57
2024-02-13T05:19:55.876Z,7.80
2024-02-13T05:23:58.733Z,7.60
2024-02-13T05:28:02.898Z,8.15
2024-02-13T05:32:05.988Z,8.50
2024-02-13T05:36:09.893Z,8.57
2024-02-13T05:40:13.817Z,9.00
2024-02-13T05:44:20.231Z,9.43
2024-02-13T05:48:23.318Z,8.10
2024-02-13T05:52:26.283Z,8.48
2024-02-13T05:56:29.144Z,8.10
2024-02-13T06:00:40.489Z,8.73
2024-02-13T06:04:45.703Z,8.30
2024-02-13T06:08:48.822Z,8.27
2024-02-13T06:12:54.498Z,8.93
2024-02-13T06:16:59.106Z,9.07
2024-02-13T06:21:02.041Z,9.13
2024-02-13T06:25:07.016Z,9.60
2024-02-13T06:29:09.898Z,8.88
2024-02-13T06:33:14.270Z,10.18
2024-02-13T06:37:17.207Z,9.55
2024-02-13T06:41:20.019Z,9.32
2024-02-13T06:45:22.977Z,10.35
2024-02-13T06:49:30.954Z,10.43
2024-02-13T06:53:36.780Z,10.50
2024-02-13T06:57:39.728Z,10.38
2024-02-13T07:01:42.596Z,10.32
2024-02-13T07:05:46.963Z,10.80
2024-02-13T07:09:53.711Z,10.95
2024-02-13T07:13:56.864Z,11.10
2024-02-13T07:18:02.310Z,10.82
2024-02-13T07:22:09.003Z,11.48
2024-02-13T07:26:12.702Z,11.32
2024-02-13T07:30:16.617Z,13.00
2024-02-13T07:34:21.378Z,13.80
2024-02-13T07:38:25.734Z,13.85
2024-02-13T07:42:30.095Z,13.68
2024-02-13T07:46:36.040Z,15.23
2024-02-13T07:50:39.792Z,14.40
2024-02-13T07:54:44.049Z,14.82
2024-02-13T07:58:49.824Z,14.35
2024-02-13T08:02:55.450Z,15.35
2024-02-13T08:11:26.823Z,13.40
2024-02-13T08:15:30.584Z,11.82
2024-02-13T08:19:34.550Z,13.15
2024-02-13T08:23:38.430Z,12.27
2024-02-13T08:27:45.560Z,12.25
2024-02-13T08:31:51.925Z,12.25
2024-02-13T08:35:56.517Z,12.60
2024-02-13T08:39:59.760Z,11.25
2024-02-13T08:44:03.991Z,10.60
2024-02-13T08:48:07.826Z,9.15
2024-02-13T08:52:13.778Z,7.93
2024-02-13T08:56:17.113Z,8.25
2024-02-13T09:00:24.483Z,9.25
2024-02-13T09:04:29.373Z,7.57
2024-02-13T09:08:34.858Z,7.72
2024-02-13T09:12:38.031Z,7.10
2024-02-13T09:16:42.827Z,8.02
2024-02-13T09:20:45.731Z,7.03
2024-02-13T09:24:53.460Z,6.65
2024-02-13T09:41:37.797Z,4.53
2024-02-13T09:45:42.438Z,4.30
2024-02-13T09:49:48.355Z,3.92
2024-02-13T09:53:52.603Z,4.32
2024-02-13T09:57:58.470Z,3.65
2024-02-13T10:02:02.410Z,4.20
2024-02-13T10:06:05.585Z,3.72
2024-02-13T10:10:12.748Z,4.00
2024-02-13T10:14:22.520Z,3.75
2024-02-13T10:18:27.004Z,3.90
2024-02-13T10:22:29.855Z,3.38
2024-02-13T10:26:32.671Z,3.60
2024-02-13T10:30:41.423Z,3.42
2024-02-13T10:34:44.247Z,3.25
2024-02-13T10:38:50.259Z,3.17
2024-02-13T10:42:53.742Z,3.38
2024-02-13T10:47:00.806Z,3.50
2024-02-13T10:51:04.634Z,3.17
2024-02-13T10:55:11.868Z,3.47
2024-02-13T10:59:15.681Z,3.67
2024-02-13T11:03:21.871Z,3.45
2024-02-13T11:07:25.417Z,3.70
2024-02-13T11:11:29.813Z,3.38
2024-02-13T11:15:34.176Z,2.95
2024-02-13T11:19:45.640Z,2.85
2024-02-13T11:23:54.704Z,2.70
2024-02-13T11:28:07.938Z,3.08
2024-02-13T11:32:14.945Z,2.80
2024-02-13T11:36:25.914Z,2.88
2024-02-13T11:40:30.971Z,2.20
2024-02-13T11:44:38.142Z,2.58
2024-02-13T11:48:43.014Z,2.28
2024-02-13T11:52:49.213Z,2.25
2024-02-13T22:06:30.370Z,2.55
2024-02-13T22:10:33.759Z,2.42
2024-02-13T22:14:36.581Z,3.08
2024-02-13T22:18:39.884Z,2.83
2024-02-13T22:22:44.911Z,3.30
2024-02-13T22:26:47.762Z,3.20
2024-02-13T22:30:50.621Z,3.35
2024-02-13T22:34:57.885Z,3.42
2024-02-13T22:39:02.948Z,3.38
2024-02-13T22:43:06.237Z,3.40
2024-02-13T22:56:20.661Z,3.47
2024-02-13T23:00:37.892Z,3.42
2024-02-13T23:04:40.955Z,3.80
2024-02-13T23:08:46.097Z,3.58
2024-02-13T23:12:51.265Z,4.18
2024-02-13T23:16:54.266Z,3.85
2024-02-13T23:20:57.195Z,3.80
2024-02-13T23:25:01.237Z,3.60
2024-02-13T23:45:56.558Z,3.55
2024-02-13T23:49:59.435Z,3.28
2024-02-13T23:54:02.444Z,3.17
2024-02-13T23:58:05.989Z,3.45
